Terminal Aerodrome Forecast
Issued by NWS Louisville, KY

Home | Current Version | Previous Version | Text Only | Print | Product List | Glossary On
Versions: 1 2 3 4 5 6 7 8 9 10 11 12 13 14 15 16 17 18
564
FTUS43 KLMK 190855 AAA
TAFSDF
TAF AMD
KSDF 190855Z 1909/2012 15005KT P6SM VCSH SCT040 BKN090
     FM191130 18005KT P6SM -SHRA VCTS SCT035CB BKN060
     FM191600 21008KT P6SM SCT040 BKN150=

USA.gov is the U.S. government's official web portal to all federal, state and local government web resources and services.